Time;durP1;ratioP1;P1;durP2;ratioP2;P2;SDS_P1;SDS_P2;PMS_P1;PMS_P2;Temp;Humidity;BMP_temperature;BMP_pressure;BME280_temperature;BME280_humidity;BME280_pressure;Samples;Min_cycle;Max_cycle;Signal;HPM_P1;HPM_P2
2021/04/30 00:00:26;;;;;;;40.25;18.05;;;;;;;7.03;100.00;101075.13;3572644;40;20030;-61
2021/04/30 00:02:52;;;;;;;42.90;18.63;;;;;;;7.04;100.00;101068.81;3573409;40;20048;-60
2021/04/30 00:05:18;;;;;;;39.50;17.95;;;;;;;7.07;100.00;101071.28;3570832;40;20049;-60
2021/04/30 00:07:45;;;;;;;41.95;17.58;;;;;;;7.03;100.00;101071.59;3571221;40;20053;-59
2021/04/30 00:10:12;;;;;;;38.38;18.63;;;;;;;7.08;100.00;101066.75;3571640;40;20060;-60
2021/04/30 00:12:38;;;;;;;31.95;17.55;;;;;;;7.13;100.00;101070.00;3570751;40;20119;-61
2021/04/30 00:15:05;;;;;;;37.83;18.13;;;;;;;7.12;100.00;101069.09;3571381;40;20129;-62
2021/04/30 00:17:31;;;;;;;37.85;16.55;;;;;;;7.15;100.00;101070.72;3571306;40;20061;-59
2021/04/30 00:19:58;;;;;;;34.63;17.00;;;;;;;7.11;100.00;101066.53;3572253;40;20064;-59
2021/04/30 00:22:24;;;;;;;37.78;18.88;;;;;;;7.17;100.00;101066.13;3571880;40;20050;-59
2021/04/30 00:24:51;;;;;;;36.13;18.88;;;;;;;7.11;100.00;101062.06;3571177;40;20454;-59
2021/04/30 00:27:17;;;;;;;43.45;19.75;;;;;;;7.17;100.00;101071.50;3570334;40;20437;-61
2021/04/30 00:29:43;;;;;;;40.83;19.35;;;;;;;7.13;100.00;101057.44;3571516;40;20050;-61
2021/04/30 00:32:09;;;;;;;42.38;19.23;;;;;;;7.20;100.00;101060.56;3571212;40;20316;-59
2021/04/30 00:34:35;;;;;;;39.63;20.25;;;;;;;7.15;100.00;101060.00;3571341;40;20088;-61
2021/04/30 00:37:00;;;;;;;45.25;20.13;;;;;;;7.11;100.00;101053.16;3571548;40;20061;-59
2021/04/30 00:39:26;;;;;;;46.55;20.70;;;;;;;7.20;100.00;101063.25;3572008;40;20079;-59
2021/04/30 00:41:53;;;;;;;34.33;19.10;;;;;;;7.18;100.00;101062.47;3570939;40;20052;-61
2021/04/30 00:44:19;;;;;;;38.08;20.35;;;;;;;7.16;100.00;101064.41;3571760;40;20097;-61
2021/04/30 00:46:45;;;;;;;44.13;19.77;;;;;;;7.21;100.00;101061.41;3571536;40;20126;-59
2021/04/30 00:49:12;;;;;;;43.92;19.95;;;;;;;7.13;100.00;101064.63;3571710;40;20082;-60
2021/04/30 00:51:38;;;;;;;44.10;21.63;;;;;;;7.17;100.00;101066.97;3570899;40;20054;-60
2021/04/30 00:54:05;;;;;;;35.10;22.48;;;;;;;7.18;100.00;101071.38;3571181;40;20312;-61
2021/04/30 00:56:33;;;;;;;45.72;23.38;;;;;;;7.23;100.00;101065.69;3570818;40;20592;-59
2021/04/30 00:59:01;;;;;;;50.22;24.88;;;;;;;7.24;100.00;101070.06;3571298;40;20037;-60
2021/04/30 01:01:27;;;;;;;39.38;23.58;;;;;;;7.31;100.00;101070.50;3571417;40;20037;-59
2021/04/30 01:03:53;;;;;;;52.58;27.38;;;;;;;7.27;100.00;101072.50;3571601;40;20319;-60
2021/04/30 01:06:20;;;;;;;46.30;27.52;;;;;;;7.28;100.00;101074.22;3571081;40;20165;-59
2021/04/30 01:08:46;;;;;;;47.95;27.63;;;;;;;7.37;100.00;101078.06;3571307;40;20053;-60
2021/04/30 01:11:12;;;;;;;55.40;29.60;;;;;;;7.35;100.00;101072.00;3570587;40;20114;-59
2021/04/30 01:13:39;;;;;;;45.35;28.35;;;;;;;7.41;100.00;101074.22;3571450;40;20065;-59
2021/04/30 01:16:06;;;;;;;56.60;30.00;;;;;;;7.48;100.00;101079.97;3570876;40;20400;-58
2021/04/30 01:18:40;;;;;;;50.95;29.88;;;;;;;7.54;100.00;101084.91;3570770;40;20092;-60
2021/04/30 01:21:06;;;;;;;47.15;27.83;;;;;;;7.53;100.00;101083.19;3571602;40;20065;-60
2021/04/30 01:23:33;;;;;;;44.47;26.95;;;;;;;7.54;100.00;101090.28;3570884;40;20135;-60
2021/04/30 01:25:59;;;;;;;41.13;26.00;;;;;;;7.46;100.00;101082.75;3571167;40;20053;-59
2021/04/30 01:28:25;;;;;;;53.58;26.13;;;;;;;7.41;100.00;101094.81;3571183;40;20075;-59
2021/04/30 01:30:51;;;;;;;44.55;26.92;;;;;;;7.42;100.00;101085.78;3571461;40;20586;-60
2021/04/30 01:33:18;;;;;;;54.35;26.20;;;;;;;7.45;100.00;101088.22;3570653;40;20310;-59
2021/04/30 01:35:45;;;;;;;48.53;26.95;;;;;;;7.42;100.00;101094.69;3570440;40;20106;-60
2021/04/30 01:38:11;;;;;;;48.83;26.83;;;;;;;7.34;100.00;101095.22;3571457;40;20044;-61
2021/04/30 01:40:38;;;;;;;41.78;24.60;;;;;;;7.42;100.00;101099.16;3570833;40;20057;-59
2021/04/30 01:43:06;;;;;;;47.47;25.38;;;;;;;7.38;100.00;101106.56;3568939;40;20110;-59
2021/04/30 01:45:35;;;;;;;37.80;23.83;;;;;;;7.42;100.00;101101.84;3571255;40;20073;-58
2021/04/30 01:48:04;;;;;;;43.65;23.48;;;;;;;7.36;100.00;101101.34;3570839;40;20052;-60
2021/04/30 01:50:30;;;;;;;34.60;21.45;;;;;;;7.32;100.00;101107.03;3571347;40;20044;-60
2021/04/30 01:52:56;;;;;;;36.72;23.00;;;;;;;7.28;100.00;101098.34;3570640;40;20052;-60
2021/04/30 01:57:50;;;;;;;34.92;23.00;;;;;;;7.36;100.00;101112.03;3609416;22;20127;-61
2021/04/30 02:00:22;;;;;;;35.85;22.42;;;;;;;7.26;100.00;101112.78;3579635;40;20068;-60
2021/04/30 02:02:49;;;;;;;34.97;23.60;;;;;;;7.34;100.00;101116.63;3580628;40;20081;-60
2021/04/30 02:05:15;;;;;;;45.05;23.85;;;;;;;7.40;100.00;101119.84;3580535;40;20045;-60
2021/04/30 02:07:41;;;;;;;44.42;25.75;;;;;;;7.35;100.00;101118.34;3580935;40;20904;-63
2021/04/30 02:10:13;;;;;;;44.53;24.98;;;;;;;7.41;100.00;101116.22;3580420;40;20037;-59
2021/04/30 02:12:39;;;;;;;38.67;22.70;;;;;;;7.48;100.00;101112.09;3580153;40;20089;-60
2021/04/30 02:15:09;;;;;;;35.10;22.08;;;;;;;7.45;100.00;101115.00;3581175;40;20533;-61
2021/04/30 02:17:35;;;;;;;39.00;24.27;;;;;;;7.50;100.00;101111.03;3581458;40;20086;-59
2021/04/30 02:20:01;;;;;;;33.20;21.73;;;;;;;7.53;100.00;101107.28;3581001;40;20039;-58
2021/04/30 02:22:27;;;;;;;41.15;23.05;;;;;;;7.48;100.00;101107.63;3580421;40;20057;-59
2021/04/30 02:24:53;;;;;;;44.25;25.95;;;;;;;7.41;100.00;101105.50;3581087;40;20149;-59
2021/04/30 02:27:19;;;;;;;39.28;24.05;;;;;;;7.41;100.00;101102.84;3580954;40;20052;-62
2021/04/30 02:29:45;;;;;;;39.80;23.60;;;;;;;7.36;100.00;101104.00;3580389;40;20404;-58
2021/04/30 02:32:12;;;;;;;35.90;23.15;;;;;;;7.44;100.00;101110.66;3579861;40;20056;-62
2021/04/30 02:34:38;;;;;;;36.60;23.73;;;;;;;7.31;100.00;101114.19;3580816;40;20057;-61
2021/04/30 02:37:04;;;;;;;43.97;25.73;;;;;;;7.37;100.00;101111.06;3580788;40;20052;-59
2021/04/30 02:39:30;;;;;;;46.78;25.80;;;;;;;7.41;100.00;101113.53;3580331;40;20060;-60
2021/04/30 02:41:56;;;;;;;37.92;23.23;;;;;;;7.36;100.00;101114.72;3581345;40;20052;-59
2021/04/30 02:44:21;;;;;;;38.08;24.05;;;;;;;7.26;100.00;101116.34;3580784;40;20064;-59
2021/04/30 02:46:47;;;;;;;36.47;23.98;;;;;;;7.36;100.00;101116.53;3577346;40;20048;-60
2021/04/30 02:49:16;;;;;;;42.45;25.10;;;;;;;7.14;100.00;101117.19;3578942;40;20048;-59
2021/04/30 02:51:42;;;;;;;38.50;25.80;;;;;;;7.13;100.00;101115.50;3579670;40;20049;-60
2021/04/30 02:54:08;;;;;;;36.88;23.75;;;;;;;7.23;100.00;101116.56;3579442;40;20042;-59
2021/04/30 02:56:35;;;;;;;40.08;25.48;;;;;;;7.29;100.00;101113.44;3580615;40;20349;-60
2021/04/30 02:59:04;;;;;;;46.75;27.05;;;;;;;7.27;100.00;101115.34;3571622;40;20048;-60
2021/04/30 03:01:30;;;;;;;47.58;28.08;;;;;;;7.19;100.00;101123.09;3570295;40;20077;-60
2021/04/30 03:03:56;;;;;;;44.25;26.67;;;;;;;7.26;100.00;101126.16;3569996;40;20318;-61
2021/04/30 03:06:23;;;;;;;45.42;27.45;;;;;;;7.37;100.00;101121.75;3569864;40;20068;-59
2021/04/30 03:08:52;;;;;;;37.05;24.73;;;;;;;7.38;100.00;101119.97;3571224;40;20179;-59
2021/04/30 03:11:18;;;;;;;39.60;26.88;;;;;;;7.37;100.00;101120.91;3570184;40;20415;-61
2021/04/30 03:13:45;;;;;;;41.33;26.48;;;;;;;7.36;100.00;101124.56;3570556;40;20602;-61
2021/04/30 03:16:11;;;;;;;37.60;25.38;;;;;;;7.46;100.00;101130.13;3570157;40;20041;-59
2021/04/30 03:18:37;;;;;;;39.42;27.08;;;;;;;7.49;100.00;101124.53;3571192;40;20045;-60
2021/04/30 03:21:03;;;;;;;33.42;25.17;;;;;;;7.39;100.00;101116.34;3569701;40;20052;-60
2021/04/30 03:23:30;;;;;;;36.67;25.98;;;;;;;7.38;100.00;101122.66;3570424;40;20045;-59
2021/04/30 03:25:56;;;;;;;37.50;26.73;;;;;;;7.44;100.00;101126.72;3570481;40;20048;-59
2021/04/30 03:28:22;;;;;;;35.97;24.55;;;;;;;7.18;100.00;101124.03;3570367;40;20067;-59
2021/04/30 03:30:48;;;;;;;42.90;25.98;;;;;;;7.19;100.00;101123.09;3569736;40;20056;-59
2021/04/30 03:33:14;;;;;;;37.83;25.70;;;;;;;7.06;100.00;101133.78;3569763;40;20284;-60
2021/04/30 03:35:40;;;;;;;44.75;29.58;;;;;;;7.08;100.00;101128.31;3598225;22;20384;-61
2021/04/30 03:38:06;;;;;;;50.08;32.00;;;;;;;7.11;100.00;101130.78;3569305;40;20119;-59
2021/04/30 03:40:32;;;;;;;44.22;29.27;;;;;;;7.13;100.00;101139.59;3570737;40;20048;-61
2021/04/30 03:42:58;;;;;;;64.07;32.60;;;;;;;6.93;100.00;101125.75;3571039;40;20101;-59
2021/04/30 03:45:24;;;;;;;51.92;31.92;;;;;;;6.99;100.00;101133.38;3571017;40;20446;-60
2021/04/30 03:47:50;;;;;;;50.22;31.75;;;;;;;7.09;100.00;101130.88;3571715;40;20096;-59
2021/04/30 03:50:16;;;;;;;43.55;29.63;;;;;;;7.20;100.00;101135.50;3570865;40;20045;-60
2021/04/30 03:52:42;;;;;;;44.60;29.77;;;;;;;7.21;100.00;101131.84;3570844;40;20068;-59
2021/04/30 03:55:09;;;;;;;50.25;30.15;;;;;;;7.09;100.00;101138.06;3571313;40;20305;-60
2021/04/30 03:57:36;;;;;;;41.00;27.67;;;;;;;7.18;100.00;101132.06;3572146;40;20041;-59
2021/04/30 04:00:04;;;;;;;35.85;26.27;;;;;;;7.08;100.00;101133.69;3571329;40;20049;-60
2021/04/30 04:02:30;;;;;;;41.67;28.77;;;;;;;7.12;100.00;101137.84;3571582;40;20044;-61
2021/04/30 04:04:56;;;;;;;40.45;27.67;;;;;;;7.13;100.00;101144.94;3571655;40;20357;-59
2021/04/30 04:07:22;;;;;;;43.20;28.20;;;;;;;7.19;100.00;101144.50;3571364;40;20111;-59
2021/04/30 04:09:48;;;;;;;43.17;27.48;;;;;;;7.22;100.00;101149.63;3571803;40;20076;-61
2021/04/30 04:12:14;;;;;;;39.25;26.05;;;;;;;7.21;100.00;101149.75;3571027;40;20395;-59
2021/04/30 04:14:41;;;;;;;43.00;27.92;;;;;;;7.18;100.00;101158.84;3571917;40;20148;-59
2021/04/30 04:17:07;;;;;;;46.10;28.52;;;;;;;7.01;100.00;101152.84;3566973;40;20374;-58
2021/04/30 04:19:33;;;;;;;43.28;28.35;;;;;;;6.89;100.00;101151.03;3572086;40;20443;-59
2021/04/30 04:21:59;;;;;;;54.70;31.02;;;;;;;6.98;100.00;101158.41;3571228;40;20413;-59
2021/04/30 04:24:25;;;;;;;55.47;32.33;;;;;;;7.01;100.00;101160.88;3571003;40;21342;-59
2021/04/30 04:26:51;;;;;;;49.03;31.92;;;;;;;7.00;100.00;101156.47;3571279;40;20431;-60
2021/04/30 04:29:17;;;;;;;49.88;29.23;;;;;;;7.03;100.00;101167.94;3571201;40;20069;-59
2021/04/30 04:31:43;;;;;;;56.80;32.30;;;;;;;7.04;100.00;101173.19;3571779;40;20068;-59
2021/04/30 04:34:10;;;;;;;55.00;30.50;;;;;;;7.04;100.00;101172.31;3570197;40;20130;-61
2021/04/30 04:36:36;;;;;;;56.90;31.73;;;;;;;7.06;100.00;101171.25;3575381;40;20037;-59
2021/04/30 04:39:03;;;;;;;57.50;32.10;;;;;;;7.11;100.00;101170.94;3581236;40;20102;-59
2021/04/30 04:41:29;;;;;;;49.13;30.80;;;;;;;7.25;100.00;101170.84;3580909;40;20044;-58
2021/04/30 04:43:55;;;;;;;55.55;32.78;;;;;;;7.24;100.00;101179.81;3580943;40;20037;-59
2021/04/30 04:46:21;;;;;;;54.83;30.63;;;;;;;7.27;100.00;101168.06;3580595;40;20308;-59
2021/04/30 04:48:48;;;;;;;47.17;29.48;;;;;;;7.34;100.00;101174.69;3582066;40;20068;-60
2021/04/30 04:51:14;;;;;;;43.17;26.50;;;;;;;7.25;100.00;101170.84;3580241;40;20373;-59
2021/04/30 04:53:40;;;;;;;49.22;26.50;;;;;;;7.45;100.00;101165.91;3581189;40;20041;-59
2021/04/30 04:56:06;;;;;;;39.00;24.80;;;;;;;7.36;100.00;101165.59;3581367;40;20044;-59
2021/04/30 04:58:32;;;;;;;46.85;25.38;;;;;;;7.47;100.00;101174.69;3581148;40;20059;-59
2021/04/30 05:00:59;;;;;;;35.72;23.45;;;;;;;7.56;100.00;101174.03;3581101;40;20044;-59
2021/04/30 05:03:26;;;;;;;42.15;25.48;;;;;;;7.59;100.00;101173.81;3580523;40;20439;-59
2021/04/30 05:05:52;;;;;;;39.25;23.55;;;;;;;7.64;100.00;101173.50;3582045;40;20052;-59
2021/04/30 05:08:18;;;;;;;34.92;22.45;;;;;;;7.72;100.00;101181.84;3580657;40;20087;-60
2021/04/30 05:10:44;;;;;;;38.70;23.50;;;;;;;7.65;100.00;101175.22;3581404;40;20345;-59
2021/04/30 05:13:10;;;;;;;40.38;24.38;;;;;;;7.77;100.00;101178.84;3581169;40;20044;-61
2021/04/30 05:18:10;;;;;;;41.95;24.20;;;;;;;7.76;100.00;101185.16;3607196;23;20118;-59
2021/04/30 05:20:36;;;;;;;40.00;25.58;;;;;;;7.64;100.00;101187.75;3581123;40;20044;-59
2021/04/30 05:23:03;;;;;;;46.45;25.42;;;;;;;7.56;100.00;101186.59;3580494;40;20142;-59
2021/04/30 05:25:31;;;;;;;48.42;28.50;;;;;;;7.43;100.00;101199.97;3631207;23;21402;-60
2021/04/30 05:27:57;;;;;;;44.92;27.30;;;;;;;7.46;100.00;101195.25;3571438;40;20048;-59
2021/04/30 05:30:23;;;;;;;43.80;26.40;;;;;;;7.44;100.00;101199.88;3570683;40;20067;-61
2021/04/30 05:32:49;;;;;;;41.15;27.33;;;;;;;7.47;100.00;101190.78;3570142;40;20061;-60
2021/04/30 05:35:15;;;;;;;39.47;26.58;;;;;;;7.63;100.00;101191.38;3571078;40;20114;-58
2021/04/30 05:37:41;;;;;;;40.15;26.95;;;;;;;7.74;100.00;101192.44;3571259;40;20461;-57
2021/04/30 05:40:09;;;;;;;46.63;31.20;;;;;;;7.56;100.00;101194.63;3571252;40;20053;-59
2021/04/30 05:42:35;;;;;;;47.90;32.25;;;;;;;7.58;100.00;101193.53;3569855;40;20081;-59
2021/04/30 05:45:01;;;;;;;47.80;31.52;;;;;;;7.63;100.00;101196.75;3570810;40;20076;-59
2021/04/30 05:47:27;;;;;;;48.75;33.30;;;;;;;7.76;100.00;101195.88;3571316;40;20129;-61
2021/04/30 05:49:53;;;;;;;49.67;33.53;;;;;;;7.85;100.00;101200.59;3571208;40;20410;-61
2021/04/30 05:52:19;;;;;;;48.42;33.75;;;;;;;7.77;100.00;101194.91;3573484;40;20056;-59
2021/04/30 05:54:45;;;;;;;49.17;33.20;;;;;;;7.85;100.00;101195.22;3634852;23;20305;-60
2021/04/30 06:00:09;;;;;;;50.28;31.92;;;;;;;7.83;100.00;101199.81;3609674;23;20307;-62
2021/04/30 06:02:35;;;;;;;49.88;32.45;;;;;;;7.90;100.00;101203.78;3570314;40;20041;-60
2021/04/30 06:05:02;;;;;;;51.63;32.20;;;;;;;8.00;100.00;101196.78;3570632;40;20053;-60
2021/04/30 06:07:28;;;;;;;48.10;30.83;;;;;;;8.11;100.00;101200.50;3571925;40;20053;-60
2021/04/30 06:09:54;;;;;;;44.33;30.08;;;;;;;8.12;100.00;101208.44;3570517;40;20055;-60
2021/04/30 06:12:20;;;;;;;45.55;28.90;;;;;;;8.18;100.00;101207.16;3570758;40;20061;-61
2021/04/30 06:14:46;;;;;;;40.55;27.50;;;;;;;8.23;100.00;101208.53;3570508;40;20052;-62
2021/04/30 06:17:13;;;;;;;51.65;27.42;;;;;;;8.21;100.00;101209.59;3570330;40;20049;-60
2021/04/30 06:19:39;;;;;;;42.65;25.60;;;;;;;8.06;100.00;101211.56;3570553;40;20384;-59
2021/04/30 06:22:05;;;;;;;49.17;26.40;;;;;;;8.04;100.00;101210.84;3571878;40;20084;-60
2021/04/30 06:24:31;;;;;;;44.35;25.85;;;;;;;8.11;100.00;101211.25;3571953;40;20053;-60
2021/04/30 06:26:57;;;;;;;41.78;27.17;;;;;;;8.20;100.00;101222.16;3572067;40;20061;-60
2021/04/30 06:29:23;;;;;;;44.30;27.40;;;;;;;8.24;100.00;101222.78;3571689;40;20450;-59
2021/04/30 06:31:48;;;;;;;42.25;27.15;;;;;;;8.53;100.00;101223.34;3571710;40;20029;-60
2021/04/30 06:34:15;;;;;;;40.78;25.75;;;;;;;8.47;100.00;101222.97;3570042;40;20064;-59
2021/04/30 06:36:41;;;;;;;47.85;26.17;;;;;;;8.60;100.00;101223.75;3569156;40;20057;-61
2021/04/30 06:39:07;;;;;;;40.15;24.08;;;;;;;8.83;100.00;101218.47;3569750;40;20396;-61
2021/04/30 06:41:33;;;;;;;43.45;24.13;;;;;;;8.92;100.00;101221.34;3569376;40;20399;-60
2021/04/30 06:43:59;;;;;;;38.10;22.20;;;;;;;9.27;100.00;101222.28;3570340;40;20694;-61
2021/04/30 06:46:27;;;;;;;40.80;23.17;;;;;;;9.38;100.00;101214.25;3570153;40;20057;-61
2021/04/30 06:48:53;;;;;;;40.95;21.83;;;;;;;9.37;100.00;101223.28;3571557;40;20396;-59
2021/04/30 06:51:19;;;;;;;31.52;20.92;;;;;;;9.46;100.00;101227.09;3570594;40;20130;-59
2021/04/30 06:53:45;;;;;;;31.77;19.27;;;;;;;9.42;100.00;101226.47;3570750;40;20413;-61
2021/04/30 06:56:12;;;;;;;26.40;17.00;;;;;;;9.29;100.00;101225.72;3570591;40;20142;-59
2021/04/30 06:58:38;;;;;;;35.22;18.80;;;;;;;8.94;100.00;101231.97;3570696;40;20125;-60
2021/04/30 07:01:04;;;;;;;42.95;18.58;;;;;;;8.86;100.00;101231.66;3562333;40;20378;-60
2021/04/30 07:03:30;;;;;;;29.77;18.23;;;;;;;8.83;100.00;101239.97;3560868;40;20206;-62
2021/04/30 07:05:56;;;;;;;30.80;18.38;;;;;;;8.89;100.00;101245.72;3560751;40;20168;-62
2021/04/30 07:08:23;;;;;;;30.17;17.85;;;;;;;9.03;100.00;101235.78;3560112;40;20086;-60
2021/04/30 07:10:49;;;;;;;37.67;18.70;;;;;;;9.29;100.00;101240.00;3560180;40;20431;-62
2021/04/30 07:13:16;;;;;;;32.65;18.95;;;;;;;9.45;100.00;101245.03;3560167;40;20054;-63
2021/04/30 07:15:42;;;;;;;30.50;17.45;;;;;;;9.43;100.00;101246.13;3560244;40;20041;-60
2021/04/30 07:18:08;;;;;;;42.03;21.00;;;;;;;9.35;100.00;101246.72;3561764;40;20050;-60
2021/04/30 07:20:34;;;;;;;35.13;19.58;;;;;;;9.35;100.00;101253.91;3562861;40;20062;-60
2021/04/30 07:23:00;;;;;;;29.63;19.05;;;;;;;9.52;100.00;101247.25;3562803;40;20057;-61
2021/04/30 07:25:28;;;;;;;35.55;19.30;;;;;;;9.67;100.00;101254.09;3562405;40;20041;-61
2021/04/30 07:27:54;;;;;;;29.90;18.35;;;;;;;9.86;100.00;101247.28;3562518;40;20053;-59
2021/04/30 07:30:20;;;;;;;30.98;18.85;;;;;;;9.79;100.00;101249.56;3562660;40;20295;-60
2021/04/30 07:32:46;;;;;;;38.05;19.17;;;;;;;9.74;100.00;101249.94;3563217;40;20143;-60
2021/04/30 07:35:12;;;;;;;25.33;17.23;;;;;;;9.93;100.00;101251.19;3561216;40;20337;-61
2021/04/30 07:37:38;;;;;;;28.00;16.38;;;;;;;10.14;100.00;101252.16;3561438;40;20064;-61
2021/04/30 07:40:05;;;;;;;28.33;16.75;;;;;;;10.28;100.00;101239.44;3561630;40;20409;-61
2021/04/30 07:42:32;;;;;;;28.75;17.15;;;;;;;10.27;100.00;101254.69;3562069;40;20044;-60
2021/04/30 07:44:58;;;;;;;32.47;17.25;;;;;;;10.32;100.00;101254.31;3561870;40;20037;-60
2021/04/30 07:47:24;;;;;;;29.33;18.48;;;;;;;10.20;100.00;101258.84;3561322;40;20052;-59
2021/04/30 07:49:50;;;;;;;28.92;17.73;;;;;;;10.17;100.00;101251.91;3560205;40;20087;-60
2021/04/30 07:52:16;;;;;;;30.73;18.05;;;;;;;10.13;100.00;101253.13;3561014;40;20427;-62
2021/04/30 07:54:42;;;;;;;27.95;17.05;;;;;;;9.89;100.00;101257.78;3562503;40;20085;-63
2021/04/30 07:57:08;;;;;;;25.45;15.85;;;;;;;10.41;100.00;101256.31;3562168;40;20384;-60
2021/04/30 07:59:35;;;;;;;29.13;16.02;;;;;;;10.73;100.00;101260.88;3561443;40;20069;-60
2021/04/30 08:02:03;;;;;;;25.30;15.25;;;;;;;10.96;100.00;101255.41;3561975;40;20050;-61
2021/04/30 08:04:29;;;;;;;25.35;17.25;;;;;;;10.92;100.00;101256.66;3562277;40;20046;-64
2021/04/30 08:06:55;;;;;;;27.50;14.95;;;;;;;10.97;100.00;101257.13;3562149;40;20709;-63
2021/04/30 08:09:21;;;;;;;26.23;15.52;;;;;;;11.01;100.00;101253.16;3561887;40;20180;-60
2021/04/30 08:11:47;;;;;;;28.65;15.23;;;;;;;11.07;100.00;101252.69;3562136;40;20054;-60
2021/04/30 08:17:05;;;;;;;26.55;18.30;;;;;;;10.54;100.00;101258.88;3548670;23;20367;-62
2021/04/30 08:19:31;;;;;;;29.10;17.85;;;;;;;10.34;100.00;101257.78;3562104;40;20107;-61
2021/04/30 08:21:57;;;;;;;26.88;17.73;;;;;;;9.95;100.00;101259.97;3562566;40;20053;-60
2021/04/30 08:24:23;;;;;;;32.72;20.02;;;;;;;10.05;100.00;101255.56;3561284;40;20065;-60
2021/04/30 08:26:49;;;;;;;25.48;16.77;;;;;;;10.28;100.00;101255.56;3562084;40;20056;-59
2021/04/30 08:29:16;;;;;;;29.83;17.42;;;;;;;10.24;100.00;101254.09;3561017;40;20051;-62
2021/04/30 08:31:43;;;;;;;24.52;18.38;;;;;;;10.35;100.00;101262.19;3562283;40;20081;-60
2021/04/30 08:34:09;;;;;;;28.63;18.65;;;;;;;10.37;100.00;101259.38;3561793;40;21276;-63
2021/04/30 08:36:36;;;;;;;28.02;19.63;;;;;;;9.94;100.00;101260.97;3562109;40;20041;-59
2021/04/30 08:39:02;;;;;;;33.83;20.25;;;;;;;9.65;100.00;101264.13;3561257;40;20037;-60
2021/04/30 08:41:29;;;;;;;29.98;20.08;;;;;;;10.02;100.00;101249.59;3562178;40;20704;-62
2021/04/30 08:43:55;;;;;;;29.17;19.08;;;;;;;9.85;100.00;101259.00;3561863;40;20058;-62
2021/04/30 08:46:21;;;;;;;26.63;17.38;;;;;;;10.02;100.00;101245.06;3561426;40;20215;-62
2021/04/30 08:48:47;;;;;;;29.40;17.40;;;;;;;9.98;100.00;101254.34;3562200;40;20055;-62
2021/04/30 08:51:14;;;;;;;30.02;17.77;;;;;;;9.74;100.00;101263.38;3560884;40;20065;-61
2021/04/30 08:53:40;;;;;;;36.20;18.48;;;;;;;9.58;100.00;101262.88;3561451;40;20045;-62
2021/04/30 08:56:07;;;;;;;27.63;18.08;;;;;;;9.59;100.00;101259.22;3560144;40;20045;-60
2021/04/30 08:58:34;;;;;;;25.63;16.70;;;;;;;9.58;100.00;101266.41;3561802;40;20105;-61
2021/04/30 09:01:01;;;;;;;29.73;17.70;;;;;;;9.30;100.00;101270.38;3561050;40;20054;-60
2021/04/30 09:03:28;;;;;;;34.28;17.73;;;;;;;9.37;100.00;101265.41;3561388;40;20050;-60
2021/04/30 09:05:56;;;;;;;29.13;17.20;;;;;;;9.59;100.00;101265.44;3561268;40;20088;-61
2021/04/30 09:08:24;;;;;;;27.17;18.10;;;;;;;9.66;100.00;101260.47;3561904;40;20099;-61
2021/04/30 09:10:50;;;;;;;29.77;18.80;;;;;;;9.87;100.00;101265.97;3562267;40;20056;-62
2021/04/30 09:13:18;;;;;;;27.08;18.20;;;;;;;10.08;100.00;101260.69;3561006;40;20049;-61
2021/04/30 09:15:46;;;;;;;29.02;18.17;;;;;;;10.28;100.00;101271.72;3564990;40;20041;-59
2021/04/30 09:18:17;;;;;;;24.73;17.55;;;;;;;10.33;100.00;101269.50;3571737;40;20051;-60
2021/04/30 09:20:44;;;;;;;30.10;18.33;;;;;;;10.20;100.00;101274.16;3571071;40;20081;-60
2021/04/30 09:23:31;;;;;;;28.95;16.92;;;;;;;9.73;100.00;101283.19;3572076;40;20064;-62
2021/04/30 09:25:58;;;;;;;26.48;17.95;;;;;;;9.77;100.00;101279.28;3570463;40;20093;-62
2021/04/30 09:28:24;;;;;;;32.17;18.02;;;;;;;9.82;100.00;101274.41;3571883;40;20069;-61
2021/04/30 09:37:11;;;;;;;27.67;17.48;;;;;;;9.73;100.00;101283.19;3587576;23;20443;-62
2021/04/30 09:39:54;;;;;;;26.45;17.25;;;;;;;9.73;100.00;101290.38;3561383;40;20034;-61
2021/04/30 09:42:21;;;;;;;28.83;17.75;;;;;;;9.46;100.00;101295.09;3562618;40;20396;-60
2021/04/30 09:44:50;;;;;;;32.22;17.92;;;;;;;9.45;100.00;101289.84;3561375;40;20052;-61
2021/04/30 09:47:19;;;;;;;30.33;17.43;;;;;;;9.56;100.00;101280.97;3561908;40;20058;-62
2021/04/30 09:49:45;;;;;;;25.65;17.67;;;;;;;9.63;100.00;101282.22;3561159;40;20487;-60
2021/04/30 09:52:12;;;;;;;29.25;17.20;;;;;;;9.81;100.00;101283.44;3561096;40;20051;-62
2021/04/30 09:54:39;;;;;;;37.55;20.08;;;;;;;9.64;100.00;101289.28;3561193;40;20061;-60
2021/04/30 09:57:08;;;;;;;29.10;21.70;;;;;;;9.76;100.00;101290.16;3561249;40;20041;-60
2021/04/30 09:59:35;;;;;;;34.38;24.08;;;;;;;9.51;100.00;101283.16;3560779;40;20505;-60
2021/04/30 10:02:06;;;;;;;36.20;23.83;;;;;;;9.45;100.00;101285.34;3561368;40;20381;-59
2021/04/30 10:04:34;;;;;;;36.92;22.77;;;;;;;9.64;100.00;101294.66;3562190;40;20323;-58
2021/04/30 10:07:02;;;;;;;29.95;21.13;;;;;;;9.67;100.00;101288.19;3561243;40;20049;-59
2021/04/30 10:09:29;;;;;;;39.75;23.25;;;;;;;9.53;100.00;101294.66;3559781;40;20053;-60
2021/04/30 10:11:56;;;;;;;34.20;23.33;;;;;;;9.44;100.00;101297.06;3561105;40;20925;-60
2021/04/30 10:14:24;;;;;;;30.90;23.13;;;;;;;9.31;100.00;101298.97;3559761;40;20130;-59
2021/04/30 10:16:50;;;;;;;33.35;23.77;;;;;;;9.23;100.00;101299.56;3561967;40;20326;-61
2021/04/30 10:19:16;;;;;;;33.40;23.08;;;;;;;9.33;100.00;101298.84;3560896;40;20054;-58
2021/04/30 10:21:44;;;;;;;36.72;24.42;;;;;;;9.36;100.00;101304.00;3561920;40;20407;-59
2021/04/30 10:24:15;;;;;;;34.70;24.33;;;;;;;9.41;100.00;101304.50;3561517;40;20102;-59
2021/04/30 10:26:41;;;;;;;34.83;22.92;;;;;;;9.44;100.00;101305.13;3561992;40;20052;-59
2021/04/30 10:29:11;;;;;;;31.85;22.88;;;;;;;9.50;100.00;101308.31;3561297;40;20057;-59
2021/04/30 10:31:44;;;;;;;27.58;21.10;;;;;;;9.69;100.00;101296.97;3561960;40;20044;-60
2021/04/30 10:34:16;;;;;;;29.10;20.08;;;;;;;9.72;100.00;101300.28;3561574;40;20060;-59
2021/04/30 10:36:47;;;;;;;33.53;21.45;;;;;;;9.91;100.00;101301.53;3561044;40;20048;-60
2021/04/30 10:39:24;;;;;;;32.17;21.42;;;;;;;9.86;100.00;101303.72;3562107;40;20060;-61
2021/04/30 10:41:51;;;;;;;27.98;21.23;;;;;;;9.78;100.00;101304.34;3561309;40;20037;-59
2021/04/30 10:44:18;;;;;;;26.42;20.17;;;;;;;9.86;100.00;101306.41;3561498;40;20086;-60
2021/04/30 10:46:46;;;;;;;27.80;19.83;;;;;;;10.00;100.00;101293.59;3562507;40;20048;-59
2021/04/30 10:49:19;;;;;;;27.60;19.83;;;;;;;9.90;100.00;101297.16;3561529;40;20038;-59
2021/04/30 10:52:23;;;;;;;28.02;19.63;;;;;;;10.18;100.00;101285.03;3560947;40;20042;-59
2021/04/30 10:55:01;;;;;;;27.80;20.25;;;;;;;10.17;100.00;101289.56;3562611;40;20537;-59
2021/04/30 10:57:27;;;;;;;26.83;19.48;;;;;;;9.97;100.00;101293.84;3561920;40;20391;-59
2021/04/30 10:59:54;;;;;;;26.70;18.75;;;;;;;9.57;100.00;101288.03;3562507;40;20061;-59
2021/04/30 11:05:32;;;;;;;27.30;19.55;;;;;;;9.74;100.00;101292.97;3608307;23;20060;-60
2021/04/30 11:07:58;;;;;;;29.25;18.20;;;;;;;9.75;100.00;101280.41;3570362;40;20063;-60
2021/04/30 11:10:43;;;;;;;23.92;16.73;;;;;;;10.02;100.00;101281.88;3570488;40;20061;-60
2021/04/30 11:13:14;;;;;;;25.20;16.58;;;;;;;9.92;100.00;101281.72;3568505;40;20048;-59
2021/04/30 11:15:58;;;;;;;27.90;18.15;;;;;;;9.63;100.00;101284.91;3569381;40;20045;-61
2021/04/30 11:18:25;;;;;;;27.30;17.50;;;;;;;9.77;100.00;101287.34;3569545;40;20060;-59
2021/04/30 11:21:06;;;;;;;27.08;17.15;;;;;;;9.62;100.00;101289.41;3570204;40;20067;-59
2021/04/30 11:23:38;;;;;;;26.65;17.33;;;;;;;9.49;100.00;101285.09;3570360;40;20146;-61
2021/04/30 11:26:12;;;;;;;26.23;16.48;;;;;;;9.70;100.00;101291.50;3570099;40;20322;-61
2021/04/30 11:29:07;;;;;;;23.83;17.70;;;;;;;9.69;100.00;101286.22;3571025;40;20364;-60